Atalissa, Iowa
Current Conditions -  °F | °C
As of 4:55 AM on Friday 28 Nov 2014 (Local Time) from KMUT Reporting Station
Few Clouds Few Clouds  
Wind Chill:   Ceiling: Unl
Heat Index: 18°   Visibility: 10mi
Dew Point:   Wind: 8mph
Humidity: 63%   Direction: 140°SE
Pressure: 30.24"   Gusts: NA
Location:  41.57°N, 91.17°W
Report Text: KMUT 281055Z AUTO 14007KT 10SM FEW120 M08/M14 A3024 RMK AO2
Loading
Personal Weather Stations






























Interactive Weather Map New forecast layout! Learn more

10-Day Weather Forecast

Advertisements
Track Severe Weather on mobile